Qingdao, China
Current Conditions -  °F | °C
As of 4:00 PM on Sunday 21 Dec 2014 (Local Time) from ZSQD Reporting Station
Clear Clear  
Wind Chill: 19°   Ceiling: Unl
Heat Index: 30°   Visibility: 6mi
Dew Point: -2°   Wind: 16mph
Humidity: 25%   Direction: 300°WNW
Pressure: 30.36"   Gusts: NA
Location:  36.07°N, 120.32°E
Report Text: ZSQD 210800Z 30007MPS 280V340 CAVOK M01/M19 Q1028 NOSIG
Loading
Personal Weather Stations






























Interactive Weather Map New forecast layout! Learn more

10-Day Weather Forecast

Advertisements
Track Severe Weather on mobile